Time;durP1;ratioP1;P1;durP2;ratioP2;P2;SDS_P1;SDS_P2;PMS_P1;PMS_P2;Temp;Humidity;BMP_temperature;BMP_pressure;BME280_temperature;BME280_humidity;BME280_pressure;Samples;Min_cycle;Max_cycle;Signal;HPM_P1;HPM_P2
2023/08/30 00:01:30;;;;;;;3.13;3.03;;;18.80;99.90;;;19.19;73.32;100691.59;5047365;28;20443;-72
2023/08/30 00:03:58;;;;;;;3.10;3.00;;;18.80;99.90;;;19.24;73.45;100692.31;5044295;28;20045;-72
2023/08/30 00:06:28;;;;;;;3.45;3.35;;;18.80;99.90;;;19.24;73.21;100693.16;5046049;28;20037;-72
2023/08/30 00:08:57;;;;;;;3.20;3.10;;;18.90;99.90;;;19.19;73.23;100667.47;5045326;28;20042;-72
2023/08/30 00:11:25;;;;;;;3.22;3.13;;;18.90;99.90;;;19.17;73.24;100674.72;5045515;28;20159;-72
2023/08/30 00:13:54;;;;;;;3.75;3.55;;;18.80;99.90;;;19.21;73.40;100665.59;5045748;28;20041;-71
2023/08/30 00:16:22;;;;;;;2.97;2.88;;;18.80;99.90;;;19.20;73.21;100663.88;5044405;28;20125;-72
2023/08/30 00:18:50;;;;;;;3.38;3.08;;;18.80;99.90;;;19.19;73.41;100663.00;5046857;28;20045;-71
2023/08/30 00:21:18;;;;;;;3.58;3.38;;;18.80;99.90;;;19.21;73.42;100668.28;5043600;28;20116;-71
2023/08/30 00:23:48;;;;;;;3.13;3.03;;;18.80;99.90;;;19.21;73.17;100663.78;5043416;28;20053;-72
2023/08/30 00:26:16;;;;;;;3.50;3.40;;;18.80;99.90;;;19.23;73.19;100661.91;5044054;28;20049;-71
2023/08/30 00:28:45;;;;;;;2.80;2.70;;;18.90;99.90;;;19.23;73.02;100669.97;5046246;28;20123;-72
2023/08/30 00:31:13;;;;;;;2.95;2.85;;;18.80;99.90;;;19.22;73.07;100662.00;5044872;28;20057;-72
2023/08/30 00:33:41;;;;;;;3.28;3.17;;;18.90;99.90;;;19.23;73.10;100653.88;5045688;28;20483;-71
2023/08/30 00:36:12;;;;;;;;;;;18.90;99.90;;;19.22;73.18;100657.47;5053552;28;20095;-71
2023/08/30 00:38:40;;;;;;;3.10;3.00;;;18.90;99.90;;;19.20;73.19;100656.66;5043982;28;19944;-72
2023/08/30 00:41:10;;;;;;;3.22;3.13;;;18.90;99.90;;;19.19;73.46;100646.91;5046323;28;20099;-72
2023/08/30 00:43:39;;;;;;;3.30;3.20;;;18.90;99.90;;;19.17;73.49;100648.78;5050338;28;20095;-71
2023/08/30 00:46:08;;;;;;;3.10;3.00;;;18.80;99.90;;;19.12;73.70;100649.91;5042706;28;20288;-72
2023/08/30 00:48:36;;;;;;;2.90;2.80;;;18.80;99.90;;;19.18;73.68;100649.66;5045569;28;20560;-72
2023/08/30 00:51:05;;;;;;;3.38;3.28;;;18.80;99.90;;;19.13;73.88;100641.78;5038764;28;20451;-72
2023/08/30 00:53:33;;;;;;;3.15;3.05;;;18.80;99.90;;;19.20;74.12;100648.63;5040274;28;20038;-72
2023/08/30 00:56:02;;;;;;;2.83;2.72;;;18.80;99.90;;;19.22;74.20;100645.91;5045123;28;20139;-72
2023/08/30 00:58:32;;;;;;;2.95;2.85;;;18.80;99.90;;;19.16;74.44;100643.47;5044558;28;20489;-71
2023/08/30 01:01:00;;;;;;;7.45;4.00;;;18.80;99.90;;;19.12;74.59;100644.53;5050746;28;20494;-71
2023/08/30 01:03:30;;;;;;;3.15;3.05;;;18.70;99.90;;;19.16;74.92;100643.47;5045238;28;20079;-72
2023/08/30 01:05:58;;;;;;;3.20;3.00;;;18.80;99.90;;;19.07;75.22;100631.31;5049405;28;20049;-71
2023/08/30 01:08:27;;;;;;;3.65;3.45;;;18.70;99.90;;;19.10;75.36;100641.06;5046082;28;20064;-72
2023/08/30 01:11:06;;;;;;;3.10;3.00;;;18.70;99.90;;;19.07;75.25;100634.00;5042165;28;20103;-71
2023/08/30 01:13:43;;;;;;;3.47;3.38;;;18.70;99.90;;;18.85;75.63;100593.00;5043895;28;20505;-71
2023/08/30 01:16:12;;;;;;;3.65;3.42;;;18.70;99.90;;;18.34;75.58;100510.28;5052685;28;20055;-71
2023/08/30 01:18:41;;;;;;;2.95;2.85;;;18.60;99.90;;;19.04;75.80;100627.91;5033904;28;20045;-71
2023/08/30 01:21:22;;;;;;;3.30;3.20;;;18.70;99.90;;;19.05;75.75;100627.00;5033756;28;20045;-71
2023/08/30 01:24:00;;;;;;;3.20;3.10;;;18.60;99.90;;;19.01;75.96;100623.53;5033321;28;20045;-71
2023/08/30 01:26:42;;;;;;;2.90;2.80;;;18.60;99.90;;;18.90;75.95;100618.66;5041811;28;20460;-71
2023/08/30 01:29:13;;;;;;;3.25;3.15;;;18.60;99.90;;;19.03;76.26;100618.13;5042940;28;20151;-71
2023/08/30 01:31:43;;;;;;;32.85;6.30;;;18.60;99.90;;;19.01;76.30;100617.34;5052351;28;20060;-71
2023/08/30 01:34:13;;;;;;;3.78;3.60;;;18.60;99.90;;;18.99;76.68;100611.16;5045670;28;20136;-70
2023/08/30 01:36:42;;;;;;;3.38;3.28;;;18.60;99.90;;;19.03;76.75;100612.78;5040971;28;20045;-71
2023/08/30 01:39:12;;;;;;;3.58;3.38;;;18.60;99.90;;;18.90;76.83;100585.63;5044563;28;20041;-72
2023/08/30 01:41:42;;;;;;;3.85;3.67;;;18.70;99.90;;;18.99;76.77;100609.34;5043324;28;20092;-70
2023/08/30 01:44:16;;;;;;;3.20;3.10;;;18.60;99.90;;;19.03;76.90;100608.25;5043306;28;20044;-71
2023/08/30 01:46:46;;;;;;;4.00;3.80;;;18.60;99.90;;;19.07;76.89;100611.69;5044619;28;20078;-70
2023/08/30 01:49:14;;;;;;;3.22;3.13;;;18.70;99.90;;;18.98;77.08;100610.28;5041096;28;20049;-72
2023/08/30 01:51:43;;;;;;;3.33;3.22;;;18.70;99.90;;;18.96;77.06;100609.47;5038881;28;20451;-71
2023/08/30 01:54:17;;;;;;;3.33;3.22;;;18.60;99.90;;;18.96;76.96;100606.78;5043893;28;20040;-71
2023/08/30 01:56:46;;;;;;;3.05;2.95;;;18.60;99.90;;;18.92;76.67;100592.66;5042500;28;20041;-71
2023/08/30 01:59:16;;;;;;;3.90;3.70;;;18.60;99.90;;;18.89;76.92;100597.28;5042206;28;20516;-71
2023/08/30 02:01:44;;;;;;;3.20;3.10;;;18.60;99.90;;;18.90;76.80;100594.53;5051468;28;20055;-71
2023/08/30 02:04:13;;;;;;;3.00;2.90;;;18.50;99.90;;;18.92;76.87;100592.66;5041977;28;20038;-71
2023/08/30 02:06:50;;;;;;;3.17;3.08;;;18.50;99.90;;;18.91;77.03;100584.69;5044721;28;20041;-71
2023/08/30 02:09:25;;;;;;;3.10;3.00;;;18.50;99.90;;;18.85;77.08;100591.16;5058288;28;20759;-71
2023/08/30 02:11:55;;;;;;;2.72;2.63;;;18.50;99.90;;;18.81;77.17;100580.66;5042597;28;20544;-71
2023/08/30 02:14:27;;;;;;;3.17;3.08;;;18.40;99.90;;;18.76;77.13;100583.53;5051030;28;20045;-71
2023/08/30 02:16:57;;;;;;;3.58;3.47;;;18.40;99.90;;;18.68;77.09;100585.66;5033093;28;20398;-70
2023/08/30 02:19:25;;;;;;;3.13;3.03;;;18.30;99.90;;;18.66;77.05;100581.31;5039365;28;20521;-70
2023/08/30 02:21:54;;;;;;;3.13;3.03;;;18.30;99.90;;;18.61;76.80;100578.81;5040122;28;20053;-71
2023/08/30 02:24:22;;;;;;;3.38;3.28;;;18.30;99.90;;;18.57;77.01;100581.69;5042132;28;20053;-71
2023/08/30 02:26:50;;;;;;;2.70;2.60;;;18.20;99.90;;;18.50;76.91;100573.03;5040752;28;20054;-71
2023/08/30 02:29:19;;;;;;;3.20;3.10;;;18.20;99.90;;;18.38;77.10;100575.31;5041928;28;20049;-72
2023/08/30 02:31:49;;;;;;;3.08;2.97;;;18.00;99.90;;;18.32;77.24;100565.72;5041043;28;20115;-71
2023/08/30 02:34:18;;;;;;;2.78;2.67;;;18.00;99.90;;;18.28;77.43;100561.41;5041192;28;20037;-71
2023/08/30 02:36:46;;;;;;;3.10;3.00;;;17.90;99.90;;;18.26;77.51;100555.25;5042484;28;20052;-71
2023/08/30 02:39:16;;;;;;;3.20;3.10;;;17.90;99.90;;;18.05;77.60;100529.34;5040950;28;20095;-71
2023/08/30 02:41:44;;;;;;;3.53;3.33;;;17.90;99.90;;;18.13;77.86;100556.69;5032131;28;20075;-71
2023/08/30 02:44:12;;;;;;;3.95;3.75;;;17.80;99.90;;;18.07;77.88;100546.22;5032549;28;20543;-69
2023/08/30 02:46:42;;;;;;;3.10;3.00;;;17.70;99.90;;;17.92;78.95;100547.69;5031250;28;20144;-70
2023/08/30 02:49:13;;;;;;;3.10;3.00;;;17.60;99.90;;;17.78;79.46;100544.72;5046940;28;20144;-71
2023/08/30 02:51:42;;;;;;;4.23;4.03;;;17.50;99.90;;;17.55;80.32;100536.69;5038152;28;20505;-71
2023/08/30 02:54:12;;;;;;;3.15;3.05;;;17.40;99.90;;;17.33;81.66;100527.69;5043161;28;20367;-71
2023/08/30 02:56:42;;;;;;;3.42;3.33;;;17.10;99.90;;;16.99;82.93;100520.03;5047628;28;20052;-71
2023/08/30 02:59:10;;;;;;;3.72;3.53;;;16.90;99.90;;;16.62;83.84;100518.72;5038986;28;20048;-71
2023/08/30 03:01:39;;;;;;;4.13;3.90;;;16.60;99.90;;;16.55;85.20;100498.53;5035701;28;20084;-70
2023/08/30 03:04:09;;;;;;;3.77;3.57;;;16.40;99.90;;;16.46;85.29;100494.31;5037602;28;20053;-69
2023/08/30 03:06:39;;;;;;;3.80;3.60;;;16.30;99.90;;;16.34;85.44;100467.19;5041410;28;20299;-71
2023/08/30 03:09:07;;;;;;;7.03;6.63;;;16.30;99.90;;;16.42;85.83;100498.03;5042162;28;20044;-71
2023/08/30 03:11:37;;;;;;;4.47;4.18;;;16.30;99.90;;;16.34;86.38;100492.06;5041653;28;20457;-71
2023/08/30 03:14:06;;;;;;;3.30;3.20;;;16.10;99.90;;;16.38;86.83;100484.81;5038531;28;20045;-71
2023/08/30 03:16:34;;;;;;;4.05;3.85;;;16.10;99.90;;;16.35;86.78;100490.28;5041892;28;20148;-71
2023/08/30 03:19:03;;;;;;;4.07;3.88;;;16.10;99.90;;;16.27;86.96;100483.41;5047539;28;20048;-70
2023/08/30 03:21:32;;;;;;;3.65;3.53;;;16.10;99.90;;;16.34;86.69;100481.38;5042650;28;20096;-70
2023/08/30 03:24:01;;;;;;;3.67;3.47;;;16.10;99.90;;;16.31;86.80;100483.28;5038918;28;20042;-71
2023/08/30 03:26:30;;;;;;;5.10;4.60;;;16.10;99.90;;;16.28;86.81;100470.91;5033226;28;20056;-71
2023/08/30 03:28:58;;;;;;;3.40;3.30;;;16.10;99.90;;;16.25;86.64;100481.72;5041220;28;20049;-70
2023/08/30 03:31:27;;;;;;;3.20;3.10;;;16.10;99.90;;;16.26;87.24;100480.78;5048425;28;20049;-70
2023/08/30 03:33:55;;;;;;;3.63;3.45;;;16.10;99.90;;;16.24;87.57;100477.28;5041268;28;20037;-71
2023/08/30 03:36:24;;;;;;;3.33;3.22;;;16.00;99.90;;;16.22;88.05;100466.66;5041956;28;20046;-71
2023/08/30 03:38:53;;;;;;;3.43;3.33;;;16.10;99.90;;;16.35;87.75;100475.16;5038980;28;20064;-70
2023/08/30 03:41:24;;;;;;;3.40;3.30;;;16.10;99.90;;;16.40;87.60;100470.50;5042850;28;20610;-70
2023/08/30 03:43:53;;;;;;;3.22;3.13;;;16.20;99.90;;;16.49;87.19;100461.34;5030492;28;20057;-70
2023/08/30 03:46:21;;;;;;;4.93;4.63;;;16.20;99.90;;;16.61;86.51;100469.78;5038344;28;20076;-70
2023/08/30 03:48:49;;;;;;;3.80;3.60;;;16.30;99.90;;;16.57;86.40;100453.94;5045762;28;20041;-71
2023/08/30 03:51:18;;;;;;;3.95;3.75;;;16.30;99.90;;;16.63;86.02;100454.56;5040488;28;20060;-71
2023/08/30 03:53:49;;;;;;;3.33;3.22;;;16.40;99.90;;;16.80;85.77;100454.00;5039712;28;20053;-71
2023/08/30 03:56:17;;;;;;;3.85;3.65;;;16.50;99.90;;;16.89;85.40;100456.31;5041803;28;20057;-71
2023/08/30 03:58:47;;;;;;;3.85;3.65;;;16.60;99.90;;;16.92;85.65;100459.75;5047198;28;20475;-71
2023/08/30 04:01:16;;;;;;;4.15;3.95;;;16.60;99.90;;;16.95;85.67;100470.34;5049999;28;20056;-71
2023/08/30 04:03:44;;;;;;;3.50;3.40;;;16.70;99.90;;;16.96;85.18;100456.03;5039739;28;20124;-70
2023/08/30 04:06:13;;;;;;;3.72;3.55;;;16.70;99.90;;;16.76;85.37;100444.34;5038477;28;20453;-71
2023/08/30 04:08:41;;;;;;;4.63;3.88;;;16.60;99.90;;;16.68;85.49;100441.06;5042773;28;20072;-70
2023/08/30 04:11:10;;;;;;;3.30;3.20;;;16.50;99.90;;;16.66;85.98;100434.91;5039202;28;20600;-70
2023/08/30 04:13:38;;;;;;;3.90;3.70;;;16.40;99.90;;;16.59;86.38;100438.75;5041339;28;20108;-71
2023/08/30 04:16:08;;;;;;;4.90;4.35;;;16.30;99.90;;;16.51;86.46;100438.97;5044694;28;20129;-70
2023/08/30 04:18:36;;;;;;;3.80;3.60;;;16.30;99.90;;;16.57;86.60;100438.78;5044908;28;20053;-70
2023/08/30 04:21:07;;;;;;;3.33;3.22;;;16.30;99.90;;;16.57;86.44;100435.25;5045522;28;20119;-70
2023/08/30 04:23:36;;;;;;;3.28;3.17;;;16.30;99.90;;;16.52;86.85;100432.75;5050436;28;20045;-70
2023/08/30 04:26:05;;;;;;;4.38;4.18;;;16.30;99.90;;;16.55;86.91;100434.44;5045553;28;20478;-71
2023/08/30 04:28:34;;;;;;;4.18;3.97;;;16.30;99.90;;;16.46;87.23;100432.91;5033072;28;20054;-70
2023/08/30 04:31:03;;;;;;;3.63;3.50;;;16.30;99.90;;;16.58;87.30;100424.50;5034589;28;20045;-71
2023/08/30 04:33:32;;;;;;;4.13;3.92;;;16.30;99.90;;;16.56;87.27;100429.03;5041613;28;20053;-71
2023/08/30 04:36:04;;;;;;;3.95;3.75;;;16.40;99.90;;;16.56;87.62;100420.16;5039987;28;20399;-71
2023/08/30 04:38:33;;;;;;;3.60;3.45;;;16.40;99.90;;;16.72;87.60;100416.00;5044142;28;20129;-70
2023/08/30 04:41:07;;;;;;;4.07;3.88;;;16.50;99.90;;;16.82;87.53;100420.09;5049961;28;20049;-71
2023/08/30 04:43:36;;;;;;;4.72;4.35;;;16.50;99.90;;;16.77;87.18;100420.25;5046428;28;20060;-71
2023/08/30 04:46:05;;;;;;;4.25;4.05;;;16.60;99.90;;;16.92;87.23;100418.78;5044812;28;20049;-71
2023/08/30 04:48:35;;;;;;;3.40;3.30;;;16.60;99.90;;;16.99;87.39;100426.50;5042295;28;20060;-70
2023/08/30 04:51:05;;;;;;;3.80;3.60;;;16.70;99.90;;;17.01;87.73;100432.66;5051323;28;20135;-71
2023/08/30 04:53:34;;;;;;;4.97;4.53;;;16.70;99.90;;;17.06;88.07;100432.50;5043269;28;20410;-70
2023/08/30 04:56:12;;;;;;;3.35;3.22;;;16.70;99.90;;;16.97;88.70;100440.88;5043650;28;20487;-71
2023/08/30 04:58:41;;;;;;;14.70;6.63;;;16.70;99.90;;;17.01;88.80;100448.69;5033443;28;20421;-71
2023/08/30 05:01:13;;;;;;;3.97;3.78;;;16.70;99.90;;;16.88;89.81;100444.75;5034548;28;20095;-71
2023/08/30 05:03:44;;;;;;;3.40;3.20;;;16.70;99.90;;;16.91;90.42;100436.63;5040870;28;20054;-71
2023/08/30 05:06:16;;;;;;;4.20;3.97;;;16.60;99.90;;;16.81;90.63;100432.56;5040769;28;20061;-71
2023/08/30 05:08:45;;;;;;;4.63;4.43;;;16.50;99.90;;;16.72;91.64;100427.56;5043937;28;20084;-72
2023/08/30 05:11:14;;;;;;;20.48;5.95;;;16.40;99.90;;;16.77;91.80;100425.59;5049501;28;20064;-71
2023/08/30 05:13:42;;;;;;;4.40;4.10;;;16.50;99.90;;;16.68;92.25;100425.94;5032536;28;20514;-69
2023/08/30 05:16:10;;;;;;;3.53;3.42;;;16.40;99.90;;;16.59;93.25;100409.38;5033705;28;20046;-70
2023/08/30 05:18:39;;;;;;;3.95;3.75;;;16.30;99.90;;;16.75;93.10;100416.75;5040697;28;20053;-71
2023/08/30 05:21:08;;;;;;;3.95;3.75;;;16.40;99.90;;;16.57;93.87;100412.06;5040602;28;20072;-76
2023/08/30 05:23:37;;;;;;;4.65;4.28;;;16.30;99.90;;;16.57;94.48;100411.22;5042172;28;20499;-73
2023/08/30 05:26:08;;;;;;;3.40;3.30;;;16.30;99.90;;;16.52;95.60;100408.72;5043138;28;20049;-70
2023/08/30 05:28:37;;;;;;;3.38;3.28;;;16.30;99.90;;;16.52;95.88;100418.50;5043244;28;20040;-68
2023/08/30 05:31:07;;;;;;;3.47;3.35;;;16.30;99.90;;;16.64;96.14;100410.06;5048692;28;20061;-69
2023/08/30 05:33:55;;;;;;;3.80;3.63;;;16.30;99.90;;;16.68;96.13;100409.03;5050613;28;20448;-68
2023/08/30 05:36:44;;;;;;;3.72;3.53;;;16.40;99.90;;;16.72;96.39;100408.00;5043102;28;20088;-70
2023/08/30 05:39:21;;;;;;;5.93;5.43;;;16.40;99.90;;;16.79;96.49;100405.03;5048807;28;20479;-68
2023/08/30 05:41:57;;;;;;;3.50;3.40;;;16.50;99.90;;;16.58;96.58;100403.16;5046017;28;20058;-68
2023/08/30 05:44:25;;;;;;;3.50;3.40;;;16.40;99.90;;;16.52;97.04;100400.69;5044196;28;20391;-67
2023/08/30 05:46:54;;;;;;;6.00;5.55;;;16.30;99.90;;;16.41;97.62;100392.19;5050092;28;20104;-67
2023/08/30 05:49:22;;;;;;;4.47;4.28;;;16.20;99.90;;;16.07;98.60;100355.13;5042056;28;20049;-69
2023/08/30 05:51:52;;;;;;;4.57;4.28;;;16.10;99.90;;;16.18;99.41;100390.28;5051018;28;20049;-69
2023/08/30 05:54:21;;;;;;;3.97;3.78;;;16.00;99.90;;;16.01;100.00;100382.00;5049020;28;20045;-70
2023/08/30 05:56:49;;;;;;;4.00;3.80;;;15.80;99.90;;;16.06;100.00;100387.19;5044583;28;20106;-69
2023/08/30 05:59:17;;;;;;;4.75;4.50;;;15.90;99.90;;;16.02;100.00;100374.88;5041716;28;20125;-70
2023/08/30 06:01:47;;;;;;;4.07;3.88;;;15.80;99.90;;;15.97;100.00;100376.81;5041357;28;20144;-68
2023/08/30 06:04:15;;;;;;;11.18;6.20;;;15.80;99.90;;;15.90;100.00;100365.50;5044717;28;20056;-69
2023/08/30 06:06:43;;;;;;;5.93;5.43;;;15.70;99.90;;;15.84;100.00;100375.50;5040463;28;20399;-70
2023/08/30 06:09:13;;;;;;;4.28;4.07;;;15.60;99.90;;;15.87;100.00;100368.25;5043486;28;20076;-70
2023/08/30 06:11:41;;;;;;;4.90;4.60;;;15.70;99.90;;;16.01;100.00;100371.34;5042435;28;20135;-70
2023/08/30 06:14:10;;;;;;;4.85;4.55;;;15.70;99.90;;;15.78;100.00;100355.25;5042871;28;20041;-70
2023/08/30 06:16:43;;;;;;;4.95;4.65;;;15.60;99.90;;;15.80;100.00;100366.75;5043329;28;20073;-70
2023/08/30 06:19:12;;;;;;;4.60;4.35;;;15.60;99.90;;;15.94;100.00;100360.94;5041449;28;20042;-69
2023/08/30 06:21:40;;;;;;;5.22;4.93;;;15.70;99.90;;;15.99;100.00;100359.84;5044228;28;20131;-70
2023/08/30 06:24:09;;;;;;;4.25;4.05;;;15.80;99.90;;;16.06;100.00;100358.72;5032418;28;20041;-69
2023/08/30 06:26:38;;;;;;;4.03;3.83;;;15.80;99.90;;;15.98;100.00;100354.56;5032424;28;20466;-69
2023/08/30 06:29:07;;;;;;;4.07;3.87;;;15.80;99.90;;;15.97;100.00;100356.38;5032069;28;20053;-68
2023/08/30 06:31:35;;;;;;;3.90;3.70;;;15.80;99.90;;;15.97;100.00;100355.47;5038576;28;20049;-69
2023/08/30 06:34:03;;;;;;;8.70;3.95;;;15.70;99.90;;;16.02;100.00;100345.53;5042285;28;20187;-69
2023/08/30 06:36:32;;;;;;;4.80;4.45;;;15.80;99.90;;;15.89;100.00;100347.75;5041139;28;20434;-68
2023/08/30 06:39:01;;;;;;;4.63;4.32;;;15.70;99.90;;;15.81;100.00;100341.84;5042488;28;20077;-69
2023/08/30 06:41:29;;;;;;;3.58;3.47;;;15.60;99.90;;;15.90;100.00;100343.28;5040966;28;20044;-69
2023/08/30 06:43:59;;;;;;;3.90;3.70;;;15.60;99.90;;;15.93;100.00;100348.53;5043490;28;20044;-69
2023/08/30 06:46:27;;;;;;;4.37;3.97;;;15.60;99.90;;;15.76;100.00;100342.88;5032179;28;20099;-68
2023/08/30 06:48:55;;;;;;;5.72;4.78;;;15.60;99.90;;;15.87;100.00;100352.25;5031946;28;20049;-69
2023/08/30 06:51:24;;;;;;;4.93;4.65;;;15.60;99.90;;;15.72;100.00;100344.78;5032374;28;20080;-67
2023/08/30 06:53:52;;;;;;;5.38;5.07;;;15.50;99.90;;;15.58;100.00;100346.19;5032803;28;20037;-69
2023/08/30 06:56:20;;;;;;;4.63;4.43;;;15.40;99.90;;;15.53;100.00;100333.00;5042869;28;20056;-68
2023/08/30 06:58:49;;;;;;;4.88;4.57;;;15.40;99.90;;;15.57;100.00;100344.44;5041654;28;20045;-69
2023/08/30 07:01:18;;;;;;;3.90;3.70;;;15.40;99.90;;;15.61;100.00;100324.75;5041926;28;20134;-69
2023/08/30 07:03:47;;;;;;;4.90;4.50;;;15.40;99.90;;;15.55;100.00;100328.50;5043140;28;20136;-68
2023/08/30 07:06:15;;;;;;;3.50;3.40;;;15.40;99.90;;;15.57;100.00;100321.31;5040598;28;20406;-68
2023/08/30 07:08:43;;;;;;;5.20;4.78;;;15.40;99.90;;;15.55;100.00;100315.16;5042918;28;20482;-68
2023/08/30 07:11:12;;;;;;;4.40;4.20;;;15.40;99.90;;;15.72;100.00;100319.91;5040117;28;20049;-69
2023/08/30 07:13:59;;;;;;;4.50;4.30;;;15.40;99.90;;;15.63;100.00;100313.13;5031935;28;20124;-68
2023/08/30 07:16:29;;;;;;;3.97;3.78;;;15.40;99.90;;;15.59;100.00;100305.25;5032171;28;20120;-68
2023/08/30 07:18:57;;;;;;;5.93;5.47;;;15.40;99.90;;;15.57;100.00;100313.31;5031968;28;20556;-69
2023/08/30 07:21:26;;;;;;;4.43;4.20;;;15.40;99.90;;;15.75;100.00;100306.50;5040035;28;20042;-68
2023/08/30 07:23:54;;;;;;;4.97;4.68;;;15.50;99.90;;;15.79;100.00;100310.78;5043306;28;20075;-69
2023/08/30 07:26:22;;;;;;;4.88;4.65;;;15.60;99.90;;;15.85;100.00;100305.25;5040464;28;20049;-69
2023/08/30 07:28:51;;;;;;;3.65;3.55;;;15.60;99.90;;;15.88;100.00;100307.78;5043021;28;20049;-69
2023/08/30 07:31:21;;;;;;;4.07;3.75;;;15.70;99.90;;;15.86;100.00;100305.19;5041335;28;20116;-69
2023/08/30 07:33:51;;;;;;;5.25;4.95;;;15.70;99.90;;;15.22;100.00;100189.22;5041692;28;20048;-69
2023/08/30 07:36:19;;;;;;;4.43;4.20;;;15.70;99.90;;;16.00;100.00;100308.25;5042814;28;20051;-68
2023/08/30 07:38:55;;;;;;;3.95;3.75;;;15.80;99.90;;;16.19;100.00;100303.13;5039544;28;20046;-68
2023/08/30 07:41:23;;;;;;;4.07;3.88;;;15.90;99.90;;;16.41;100.00;100297.88;5042954;28;20076;-69
2023/08/30 07:43:52;;;;;;;5.22;4.93;;;16.10;99.90;;;16.46;100.00;100296.75;5040146;28;20099;-70
2023/08/30 07:46:20;;;;;;;4.22;4.03;;;16.20;99.90;;;16.52;100.00;100303.69;5042168;28;20124;-70
2023/08/30 07:48:50;;;;;;;4.25;4.05;;;16.30;99.90;;;16.69;100.00;100304.81;5042458;28;20049;-68
2023/08/30 07:51:19;;;;;;;4.07;3.88;;;16.40;99.90;;;16.76;100.00;100295.63;5045006;28;20107;-70
2023/08/30 07:53:48;;;;;;;3.90;3.70;;;16.40;99.90;;;16.45;100.00;100236.31;5046672;28;20056;-69
2023/08/30 07:56:17;;;;;;;3.70;3.58;;;16.60;99.90;;;16.96;100.00;100294.84;5044038;28;20041;-71
2023/08/30 07:58:45;;;;;;;4.13;3.92;;;16.70;99.90;;;17.02;100.00;100291.91;5047146;28;20052;-69
2023/08/30 08:01:13;;;;;;;3.67;3.47;;;16.70;99.90;;;17.12;100.00;100304.00;5043931;28;20038;-70
2023/08/30 08:03:42;;;;;;;3.97;3.78;;;16.80;99.90;;;17.27;100.00;100302.47;5035282;28;20111;-71
2023/08/30 08:06:32;;;;;;;3.20;3.10;;;16.90;99.90;;;17.38;100.00;100289.56;5035561;28;20072;-69
2023/08/30 08:09:02;;;;;;;4.00;3.80;;;17.10;99.90;;;17.57;100.00;100301.28;5043573;28;20053;-70
2023/08/30 08:11:30;;;;;;;3.28;3.17;;;17.20;99.90;;;17.71;100.00;100294.38;5047047;28;20119;-69
2023/08/30 08:13:59;;;;;;;3.15;3.05;;;17.40;99.90;;;17.82;100.00;100320.69;5044235;28;20455;-72
2023/08/30 08:16:27;;;;;;;3.75;3.55;;;17.50;99.90;;;17.79;100.00;100312.78;5045485;28;20041;-72
2023/08/30 08:18:58;;;;;;;3.38;3.28;;;17.50;99.90;;;17.72;100.00;100314.00;5044615;28;20045;-73
2023/08/30 08:21:27;;;;;;;3.38;3.28;;;17.50;99.90;;;17.79;100.00;100308.31;5044629;28;20048;-70
2023/08/30 08:24:00;;;;;;;3.78;3.58;;;17.50;99.90;;;17.86;100.00;100315.16;5045907;28;20067;-71
2023/08/30 08:26:28;;;;;;;3.28;3.17;;;17.60;99.90;;;17.98;100.00;100316.44;5042945;28;20041;-72
2023/08/30 08:28:57;;;;;;;3.40;3.30;;;17.70;99.90;;;18.09;100.00;100310.59;5034870;28;20050;-76
2023/08/30 08:31:27;;;;;;;3.38;3.28;;;17.80;99.90;;;18.12;100.00;100311.31;5034666;28;20053;-76
2023/08/30 08:34:09;;;;;;;3.20;3.10;;;17.90;99.90;;;18.32;100.00;100322.03;5034755;28;20464;-76
2023/08/30 08:36:39;;;;;;;4.05;3.85;;;18.00;99.90;;;18.47;100.00;100324.03;5038239;28;20045;-69
2023/08/30 08:39:09;;;;;;;3.55;3.35;;;18.20;99.90;;;18.46;100.00;100316.09;5034478;28;20049;-71
2023/08/30 08:41:42;;;;;;;3.28;3.17;;;18.20;99.90;;;18.52;100.00;100321.16;5034764;28;20045;-74
2023/08/30 08:44:11;;;;;;;3.05;2.95;;;18.20;99.90;;;18.61;100.00;100301.97;5033955;28;20042;-74
2023/08/30 08:46:42;;;;;;;4.40;4.20;;;18.40;99.90;;;18.65;100.00;100300.91;5036266;28;20111;-73
2023/08/30 08:49:14;;;;;;;3.55;3.35;;;18.50;99.90;;;18.98;100.00;100322.56;5043368;28;20049;-73
2023/08/30 08:51:44;;;;;;;3.33;3.22;;;18.70;99.90;;;18.81;100.00;100337.63;5052904;28;20049;-73
2023/08/30 08:54:14;;;;;;;3.78;3.58;;;18.50;99.90;;;18.82;99.62;100325.09;5042616;28;20085;-74
2023/08/30 08:56:43;;;;;;;3.85;3.65;;;18.60;99.90;;;18.68;96.50;100339.13;5045694;28;20041;-71
2023/08/30 08:59:11;;;;;;;3.53;3.35;;;18.40;99.90;;;18.66;95.04;100332.97;5043010;28;20117;-73
2023/08/30 09:01:40;;;;;;;4.45;4.25;;;18.40;99.90;;;18.56;92.96;100345.06;5044298;28;20699;-73
2023/08/30 09:04:12;;;;;;;4.45;4.15;;;18.30;99.90;;;18.26;91.64;100338.38;5044090;28;20490;-74
2023/08/30 09:06:41;;;;;;;4.72;4.50;;;18.00;99.90;;;18.61;92.44;100348.41;5043031;28;20471;-68
2023/08/30 09:09:10;;;;;;;3.20;3.10;;;18.20;99.90;;;18.96;90.91;100354.81;5045789;28;20095;-64
2023/08/30 09:11:40;;;;;;;3.45;3.35;;;18.60;99.90;;;19.16;88.78;100360.13;5041991;28;20376;-65
2023/08/30 09:14:11;;;;;;;3.45;3.30;;;18.90;99.90;;;19.26;86.51;100365.91;5033982;28;20092;-65
2023/08/30 09:16:39;;;;;;;3.05;2.95;;;19.00;99.90;;;19.33;87.08;100367.38;5034088;28;20107;-64
2023/08/30 09:19:10;;;;;;;2.95;2.85;;;19.00;99.90;;;19.58;87.05;100367.91;5033377;28;20063;-65
2023/08/30 09:21:38;;;;;;;;;;;19.30;99.90;;;19.55;84.32;100362.72;5036528;28;20415;-65
2023/08/30 09:24:08;;;;;;;3.40;3.30;;;19.30;99.90;;;19.72;82.72;100368.13;5043133;28;20293;-65
2023/08/30 09:26:38;;;;;;;3.53;3.33;;;19.40;99.90;;;19.79;82.11;100372.22;5044607;28;20405;-64
2023/08/30 09:29:09;;;;;;;3.08;2.97;;;19.50;99.90;;;19.77;80.64;100366.06;5041535;28;20049;-67
2023/08/30 09:31:40;;;;;;;3.20;3.10;;;19.50;99.90;;;19.69;79.74;100366.44;5042394;28;20084;-67
2023/08/30 09:34:10;;;;;;;3.40;3.30;;;19.50;99.90;;;19.70;80.69;100370.00;5044273;28;20105;-65
2023/08/30 09:36:40;;;;;;;3.13;3.03;;;19.40;99.90;;;19.64;81.39;100344.34;5043604;28;20499;-65
2023/08/30 09:39:10;;;;;;;3.60;3.40;;;19.50;99.90;;;19.93;80.46;100382.25;5042808;28;20049;-66
2023/08/30 09:41:42;;;;;;;4.05;3.85;;;19.70;99.90;;;19.61;78.67;100363.25;5044125;28;20052;-67
2023/08/30 09:44:12;;;;;;;3.50;3.35;;;19.60;99.90;;;19.66;78.22;100382.72;5041502;28;20037;-66
2023/08/30 09:46:44;;;;;;;4.30;4.10;;;19.50;99.90;;;19.40;79.19;100387.59;5032977;28;20044;-66
2023/08/30 09:49:23;;;;;;;2.97;2.88;;;19.30;99.90;;;19.11;80.90;100380.91;5033103;28;20056;-65
2023/08/30 09:51:53;;;;;;;2.97;2.88;;;19.00;99.90;;;19.30;83.15;100415.78;5032035;28;20490;-64
2023/08/30 09:54:24;;;;;;;3.28;3.17;;;19.10;99.90;;;19.40;84.00;100395.63;5036864;28;20394;-66
2023/08/30 09:56:57;;;;;;;3.00;2.90;;;19.20;99.90;;;19.43;84.76;100392.81;5041682;28;20053;-67
2023/08/30 09:59:28;;;;;;;2.90;2.80;;;19.20;99.90;;;19.48;85.33;100396.13;5043710;28;20128;-66
2023/08/30 10:01:56;;;;;;;2.83;2.72;;;19.20;99.90;;;19.37;85.91;100395.78;5043057;28;20045;-67
2023/08/30 10:04:26;;;;;;;2.65;2.55;;;19.10;99.90;;;19.32;86.26;100400.44;5042678;28;20119;-67
2023/08/30 10:06:58;;;;;;;2.80;2.70;;;19.10;99.90;;;19.47;86.43;100394.41;5044223;28;20239;-67
2023/08/30 10:09:26;;;;;;;2.90;2.80;;;19.20;99.90;;;19.44;85.49;100383.81;5040941;28;20056;-66
2023/08/30 10:11:55;;;;;;;3.58;3.38;;;19.10;99.90;;;19.22;82.31;100383.94;5044593;28;20127;-66
2023/08/30 10:14:24;;;;;;;3.75;3.45;;;19.00;99.90;;;18.91;83.54;100381.81;5043714;28;20045;-67
2023/08/30 10:17:02;;;;;;;3.92;3.72;;;18.70;99.90;;;18.68;82.93;100387.38;5042100;28;20042;-67
2023/08/30 10:19:32;;;;;;;3.88;3.67;;;18.50;99.90;;;18.46;82.07;100386.59;5049076;28;20450;-66
2023/08/30 10:22:04;;;;;;;4.70;4.20;;;18.30;99.90;;;18.51;82.34;100392.63;5045005;28;20045;-67